createdAt,value
2022-12-14T00:02:07.615Z,15.27
2022-12-14T00:04:34.469Z,15.63
2022-12-14T00:07:01.341Z,14.43
2022-12-14T00:09:28.186Z,15.13
2022-12-14T00:11:55.073Z,16.13
2022-12-14T00:14:21.993Z,15.85
2022-12-14T00:16:48.866Z,16.48
2022-12-14T00:19:16.044Z,14.63
2022-12-14T00:21:43.021Z,16.15
2022-12-14T00:24:11.472Z,16.48
2022-12-14T00:26:38.402Z,15.32
2022-12-14T00:29:05.314Z,15.60
2022-12-14T00:31:32.718Z,15.40
2022-12-14T00:34:01.191Z,15.02
2022-12-14T00:36:28.187Z,15.65
2022-12-14T00:38:55.098Z,15.80
2022-12-14T00:41:21.906Z,14.88
2022-12-14T00:43:49.399Z,15.00
2022-12-14T00:46:17.072Z,15.00
2022-12-14T00:48:44.299Z,15.02
2022-12-14T00:51:11.235Z,16.00
2022-12-14T00:53:38.090Z,15.80
2022-12-14T00:56:07.102Z,14.98
2022-12-14T00:58:34.393Z,15.85
2022-12-14T01:01:04.134Z,15.77
2022-12-14T01:03:31.857Z,15.55
2022-12-14T01:05:59.242Z,15.23
2022-12-14T01:08:26.183Z,15.20
2022-12-14T01:10:53.230Z,16.30
2022-12-14T01:13:20.115Z,16.25
2022-12-14T01:15:47.190Z,15.30
2022-12-14T01:18:14.340Z,16.27
2022-12-14T01:20:41.244Z,16.25
2022-12-14T01:23:08.235Z,15.75
2022-12-14T01:25:35.125Z,15.77
2022-12-14T01:28:01.937Z,15.45
2022-12-14T01:30:28.847Z,15.68
2022-12-14T01:32:55.757Z,15.93
2022-12-14T01:35:22.660Z,15.07
2022-12-14T01:37:49.617Z,14.85
2022-12-14T01:40:16.982Z,16.38
2022-12-14T01:42:43.899Z,14.45
2022-12-14T01:45:22.211Z,15.40
2022-12-14T01:47:55.175Z,14.95
2022-12-14T01:50:27.963Z,15.02
2022-12-14T01:53:00.276Z,15.57
2022-12-14T01:58:13.701Z,14.93
2022-12-14T02:00:43.696Z,14.70
2022-12-14T02:03:15.457Z,13.70
2022-12-14T02:05:56.961Z,15.05
2022-12-14T02:08:25.196Z,15.10
2022-12-14T02:10:53.355Z,14.45
2022-12-14T02:13:31.621Z,15.65
2022-12-14T02:15:58.749Z,14.30
2022-12-14T02:18:28.125Z,15.07
2022-12-14T02:21:22.823Z,14.95
2022-12-14T02:24:17.586Z,15.15
2022-12-14T02:27:02.971Z,15.23
2022-12-14T02:29:38.267Z,14.55
2022-12-14T02:32:20.448Z,15.05
2022-12-14T02:35:01.821Z,14.25
2022-12-14T02:37:57.197Z,14.02
2022-12-14T02:40:45.628Z,14.60
2022-12-14T02:43:24.822Z,14.68
2022-12-14T02:46:15.282Z,14.10
2022-12-14T02:49:16.953Z,13.60
2022-12-14T02:52:14.802Z,13.38
2022-12-14T02:54:50.658Z,13.88
2022-12-14T02:57:28.451Z,14.45
2022-12-14T02:59:59.335Z,13.65
2022-12-14T03:02:27.972Z,14.63
2022-12-14T03:04:55.350Z,13.52
2022-12-14T03:07:40.472Z,14.45
2022-12-14T03:10:19.687Z,14.05
2022-12-14T03:12:55.620Z,13.82
2022-12-14T03:15:25.925Z,14.23
2022-12-14T03:17:58.849Z,14.07
2022-12-14T03:20:28.541Z,13.52
2022-12-14T03:23:01.105Z,14.65
2022-12-14T03:25:59.497Z,13.68
2022-12-14T03:28:37.149Z,13.70
2022-12-14T03:31:17.304Z,14.63
2022-12-14T03:33:45.872Z,14.30
2022-12-14T03:36:26.680Z,14.23
2022-12-14T03:38:58.502Z,14.00
2022-12-14T03:41:28.363Z,14.63
2022-12-14T03:44:19.051Z,13.27
2022-12-14T03:47:07.936Z,14.60
2022-12-14T03:50:06.448Z,15.43
2022-12-14T03:52:58.083Z,14.88
2022-12-14T03:55:58.748Z,14.80
2022-12-14T03:58:31.324Z,14.98
2022-12-14T04:01:02.044Z,14.55
2022-12-14T04:03:38.142Z,14.32
2022-12-14T04:06:26.621Z,14.38
2022-12-14T04:09:23.264Z,13.45
2022-12-14T04:12:24.948Z,14.82
2022-12-14T04:15:34.062Z,13.80
2022-12-14T04:18:24.450Z,15.85
2022-12-14T04:20:56.840Z,14.25
2022-12-14T04:23:48.333Z,15.50
2022-12-14T04:26:20.827Z,14.68
2022-12-14T04:29:17.665Z,14.77
2022-12-14T04:31:57.977Z,13.45
2022-12-14T04:34:28.391Z,13.80
2022-12-14T04:36:58.558Z,13.77
2022-12-14T04:39:47.009Z,14.13
2022-12-14T04:42:16.634Z,13.60
2022-12-14T04:44:50.029Z,14.25
2022-12-14T04:47:19.618Z,14.60
2022-12-14T04:49:51.204Z,13.50
2022-12-14T04:52:30.239Z,14.10
2022-12-14T04:55:04.091Z,14.85
2022-12-14T04:57:57.090Z,14.50
2022-12-14T05:00:24.311Z,14.15
2022-12-14T05:03:31.093Z,15.50
2022-12-14T05:06:04.667Z,14.73
2022-12-14T05:08:31.529Z,14.02
2022-12-14T05:11:51.983Z,13.80
2022-12-14T05:14:12.829Z,13.90
2022-12-14T05:16:39.911Z,14.07
2022-12-14T05:19:10.473Z,13.55
2022-12-14T05:21:49.451Z,14.93
2022-12-14T05:24:17.403Z,14.10
2022-12-14T05:26:44.997Z,15.27
2022-12-14T05:29:12.102Z,13.98
2022-12-14T05:31:39.784Z,13.07
2022-12-14T05:34:06.775Z,13.63
2022-12-14T05:36:33.719Z,13.70
2022-12-14T05:39:00.891Z,14.15
2022-12-14T05:41:27.781Z,14.90
2022-12-14T05:43:54.727Z,14.27
2022-12-14T05:46:21.669Z,13.68
2022-12-14T05:48:49.582Z,13.40
2022-12-14T05:51:17.389Z,13.85
2022-12-14T05:53:44.287Z,12.70
2022-12-14T05:56:12.241Z,14.73
2022-12-14T05:58:39.721Z,13.85
2022-12-14T06:01:13.956Z,14.25
2022-12-14T06:03:44.235Z,13.65
2022-12-14T06:06:13.261Z,13.30
2022-12-14T06:08:43.059Z,14.68
2022-12-14T06:11:12.733Z,13.85
2022-12-14T06:13:41.052Z,13.20
2022-12-14T06:16:20.333Z,13.10
2022-12-14T06:18:51.377Z,12.50
2022-12-14T06:21:20.064Z,12.45
2022-12-14T06:23:47.411Z,13.05
2022-12-14T06:26:15.391Z,12.90
2022-12-14T06:28:42.773Z,11.77
2022-12-14T06:31:19.040Z,13.00
2022-12-14T06:33:46.382Z,13.13
2022-12-14T06:36:18.852Z,13.05
2022-12-14T06:38:46.191Z,13.40
2022-12-14T06:41:13.080Z,13.45
2022-12-14T06:43:39.945Z,13.15
2022-12-14T06:46:14.763Z,11.95
2022-12-14T06:48:42.619Z,12.63
2022-12-14T06:51:09.572Z,13.00
2022-12-14T06:53:36.635Z,12.60
2022-12-14T06:56:08.738Z,14.20
2022-12-14T06:58:35.825Z,13.13
2022-12-14T07:01:05.666Z,11.77
2022-12-14T07:03:33.066Z,12.32
2022-12-14T07:06:02.560Z,11.50
2022-12-14T07:08:31.324Z,12.98
2022-12-14T07:11:02.772Z,15.93
2022-12-14T07:13:29.955Z,13.60
2022-12-14T07:15:58.475Z,11.70
2022-12-14T07:18:26.177Z,12.32
2022-12-14T07:21:00.587Z,12.45
2022-12-14T07:23:29.983Z,11.65
2022-12-14T07:26:09.472Z,11.13
2022-12-14T07:28:37.399Z,10.27
2022-12-14T07:31:07.812Z,11.20
2022-12-14T07:33:34.926Z,9.90
2022-12-14T07:36:06.823Z,11.68
2022-12-14T07:38:36.175Z,11.80
2022-12-14T07:41:08.320Z,10.45
2022-12-14T07:46:05.043Z,11.10
2022-12-14T07:48:33.013Z,10.85
2022-12-14T07:51:09.317Z,10.57
2022-12-14T07:53:37.534Z,11.30
2022-12-14T07:56:07.456Z,11.55
2022-12-14T07:58:36.858Z,10.40
2022-12-14T08:01:17.072Z,10.82
2022-12-14T08:03:47.448Z,10.60
2022-12-14T08:06:16.615Z,10.85
2022-12-14T08:08:44.192Z,11.23
2022-12-14T08:11:11.423Z,15.57
2022-12-14T08:13:39.094Z,22.65
2022-12-14T08:16:11.679Z,14.73
2022-12-14T08:18:38.732Z,13.23
2022-12-14T08:21:07.519Z,11.85
2022-12-14T08:23:34.898Z,15.38
2022-12-14T08:26:03.740Z,18.58
2022-12-14T08:28:32.117Z,23.80
2022-12-14T08:31:07.640Z,21.02
2022-12-14T08:33:36.109Z,21.27
2022-12-14T08:36:12.309Z,11.93
2022-12-14T08:38:40.163Z,17.45
2022-12-14T08:41:09.179Z,12.98
2022-12-14T08:43:37.058Z,12.48
2022-12-14T08:46:04.286Z,13.15
2022-12-14T08:48:31.470Z,11.20
2022-12-14T08:51:09.509Z,11.13
2022-12-14T08:53:37.857Z,11.75
2022-12-14T08:56:06.854Z,12.85
2022-12-14T08:58:34.549Z,11.75
2022-12-14T09:01:16.039Z,11.27
2022-12-14T09:03:47.262Z,11.83
2022-12-14T09:06:20.182Z,11.65
2022-12-14T09:08:49.664Z,10.82
2022-12-14T09:11:19.047Z,10.93
2022-12-14T09:13:46.674Z,10.68
2022-12-14T09:16:19.222Z,11.02
2022-12-14T09:18:47.955Z,11.90
2022-12-14T09:21:15.491Z,11.82
2022-12-14T09:23:42.655Z,11.30
2022-12-14T09:26:13.951Z,11.10
2022-12-14T09:28:42.893Z,12.50
2022-12-14T09:31:14.698Z,13.10
2022-12-14T09:33:41.887Z,13.65
2022-12-14T09:36:15.124Z,14.60
2022-12-14T09:38:50.607Z,14.52
2022-12-14T09:41:33.736Z,13.68
2022-12-14T09:44:23.403Z,13.70
2022-12-14T09:47:11.769Z,14.75
2022-12-14T09:49:46.640Z,15.48
2022-12-14T09:52:36.082Z,14.40
2022-12-14T09:55:11.931Z,14.82
2022-12-14T09:57:41.570Z,14.32
2022-12-14T10:00:20.360Z,14.90
2022-12-14T10:03:04.695Z,14.85
2022-12-14T10:05:33.424Z,14.65
2022-12-14T10:08:27.905Z,14.95
2022-12-14T10:11:07.519Z,15.45
2022-12-14T10:13:51.328Z,14.57
2022-12-14T10:16:40.873Z,14.52
2022-12-14T10:19:29.494Z,14.48
2022-12-14T10:22:06.862Z,14.68
2022-12-14T10:24:46.383Z,15.63
2022-12-14T10:27:25.152Z,14.60
2022-12-14T10:30:01.106Z,16.17
2022-12-14T10:32:40.588Z,15.15
2022-12-14T10:35:16.987Z,15.38
2022-12-14T10:38:05.060Z,14.68
2022-12-14T10:40:35.289Z,15.23
2022-12-14T10:43:12.667Z,16.15
2022-12-14T10:45:56.122Z,14.88
2022-12-14T10:48:41.721Z,14.93
2022-12-14T10:51:20.299Z,15.65
2022-12-14T10:53:57.763Z,15.77
2022-12-14T10:56:28.405Z,15.60
2022-12-14T10:59:17.233Z,15.48
2022-12-14T11:02:07.848Z,16.55
2022-12-14T11:04:44.696Z,15.23
2022-12-14T11:07:15.136Z,14.90
2022-12-14T11:09:43.165Z,15.48
2022-12-14T11:12:13.284Z,16.40
2022-12-14T11:14:59.658Z,16.45
2022-12-14T11:17:40.144Z,17.25
2022-12-14T11:20:24.212Z,16.20
2022-12-14T11:23:07.068Z,15.55
2022-12-14T11:25:40.924Z,15.68
2022-12-14T11:28:37.772Z,15.55
2022-12-14T11:31:23.162Z,15.48
2022-12-14T11:33:55.796Z,16.10
2022-12-14T11:36:34.607Z,16.50
2022-12-14T11:39:13.482Z,16.23
2022-12-14T11:42:02.933Z,17.10
2022-12-14T11:44:33.527Z,15.52
2022-12-14T11:47:00.489Z,16.48
2022-12-14T11:49:33.147Z,14.95
2022-12-14T11:52:06.192Z,15.18
2022-12-14T11:54:35.174Z,14.30
2022-12-14T11:57:07.380Z,14.25
2022-12-14T11:59:54.871Z,14.63
2022-12-14T12:02:32.546Z,13.98
2022-12-14T12:04:59.794Z,15.30
2022-12-14T12:07:32.221Z,15.25
2022-12-14T12:10:24.286Z,14.45
2022-12-14T12:13:03.885Z,14.60
2022-12-14T12:15:59.190Z,14.25
2022-12-14T12:18:46.159Z,14.15
2022-12-14T12:21:22.975Z,13.40
2022-12-14T12:23:49.859Z,13.63
2022-12-14T12:26:22.779Z,13.73
2022-12-14T12:29:02.687Z,15.30
2022-12-14T12:31:40.808Z,13.85
2022-12-14T12:34:18.955Z,14.95
2022-12-14T12:37:17.464Z,13.20
2022-12-14T12:39:37.072Z,13.23
2022-12-14T12:42:32.227Z,14.05
2022-12-14T12:45:18.382Z,12.90
2022-12-14T12:47:50.619Z,12.95
2022-12-14T12:53:06.515Z,13.27
2022-12-14T12:55:41.576Z,13.45
2022-12-14T12:58:19.114Z,12.45
2022-12-14T13:00:51.477Z,12.38
2022-12-14T13:06:05.827Z,12.15
2022-12-14T13:08:37.159Z,12.60
2022-12-14T13:11:27.787Z,12.07
2022-12-14T13:14:17.579Z,11.73
2022-12-14T13:16:45.396Z,12.25
2022-12-14T13:19:55.881Z,12.35
2022-12-14T13:22:31.755Z,11.23
2022-12-14T13:25:09.086Z,10.82
2022-12-14T13:27:35.931Z,11.25
2022-12-14T13:30:23.109Z,9.18
2022-12-14T13:32:49.989Z,10.10
2022-12-14T13:35:28.850Z,10.15
2022-12-14T13:38:01.824Z,10.07
2022-12-14T13:40:56.165Z,10.52
2022-12-14T13:43:35.093Z,10.23
2022-12-14T13:46:11.291Z,9.65
2022-12-14T13:48:41.492Z,10.48
2022-12-14T13:51:20.520Z,7.90
2022-12-14T13:53:50.819Z,7.63
2022-12-14T13:56:27.802Z,8.18
2022-12-14T13:59:01.662Z,6.70
2022-12-14T14:01:46.783Z,6.95
2022-12-14T14:04:14.180Z,7.10
2022-12-14T14:06:51.369Z,7.70
2022-12-14T14:09:30.309Z,7.80
2022-12-14T14:12:01.523Z,7.15
2022-12-14T14:14:47.171Z,7.55
2022-12-14T14:17:23.481Z,7.70
2022-12-14T14:19:54.899Z,7.20
2022-12-14T14:22:27.906Z,7.03
2022-12-14T14:25:25.361Z,8.23
2022-12-14T14:27:54.336Z,7.93
2022-12-14T14:30:42.072Z,7.60
2022-12-14T14:33:49.621Z,8.82
2022-12-14T14:36:16.549Z,8.07
2022-12-14T14:38:43.810Z,8.13
2022-12-14T14:41:22.738Z,9.07
2022-12-14T14:43:54.595Z,8.40
2022-12-14T14:46:37.312Z,7.97
2022-12-14T14:49:06.758Z,7.47
2022-12-14T14:51:36.118Z,8.57
2022-12-14T14:54:54.001Z,8.95
2022-12-14T14:57:35.778Z,8.90
2022-12-14T15:00:05.025Z,8.55
2022-12-14T15:02:39.386Z,8.55
2022-12-14T15:07:58.627Z,8.20
2022-12-14T15:10:36.536Z,8.45
2022-12-14T15:13:07.256Z,8.20
2022-12-14T15:15:45.952Z,8.60
2022-12-14T15:18:31.669Z,7.90
2022-12-14T15:21:27.849Z,8.85
2022-12-14T15:23:56.092Z,9.10
2022-12-14T15:26:28.849Z,8.88
2022-12-14T15:28:58.887Z,8.38
2022-12-14T15:31:32.394Z,9.40
2022-12-14T15:34:01.312Z,9.25
2022-12-14T15:36:37.988Z,8.77
2022-12-14T15:39:05.037Z,8.77
2022-12-14T15:41:33.519Z,9.45
2022-12-14T15:44:00.926Z,10.05
2022-12-14T15:46:33.464Z,8.60
2022-12-14T15:49:08.454Z,10.27
2022-12-14T15:51:38.475Z,8.98
2022-12-14T15:54:07.916Z,8.80
2022-12-14T15:56:38.380Z,9.85
2022-12-14T15:59:18.556Z,10.45
2022-12-14T16:01:55.243Z,8.77
2022-12-14T16:04:27.561Z,9.23
2022-12-14T16:07:11.437Z,9.98
2022-12-14T16:09:42.839Z,10.95
2022-12-14T16:12:24.895Z,9.23
2022-12-14T16:15:00.295Z,9.23
2022-12-14T16:17:32.513Z,9.60
2022-12-14T16:23:01.426Z,9.45
2022-12-14T16:25:30.494Z,8.60
2022-12-14T16:27:57.438Z,9.10
2022-12-14T16:30:34.980Z,9.55
2022-12-14T16:33:04.865Z,9.88
2022-12-14T16:35:34.708Z,10.40
2022-12-14T16:38:08.386Z,10.65
2022-12-14T16:40:38.623Z,9.65
2022-12-14T16:43:07.754Z,9.57
2022-12-14T16:45:45.269Z,9.25
2022-12-14T16:48:23.259Z,9.30
2022-12-14T16:51:03.704Z,9.15
2022-12-14T16:53:37.771Z,9.40
2022-12-14T16:56:17.425Z,9.82
2022-12-14T16:59:04.018Z,11.05
2022-12-14T17:01:45.497Z,10.43
2022-12-14T17:04:14.766Z,10.52
2022-12-14T17:06:52.676Z,9.30
2022-12-14T17:09:24.767Z,8.75
2022-12-14T17:11:54.346Z,9.50
2022-12-14T17:14:21.312Z,9.82
2022-12-14T17:16:52.699Z,10.77
2022-12-14T17:19:30.266Z,11.35
2022-12-14T17:21:57.781Z,10.32
2022-12-14T17:24:24.738Z,9.25
2022-12-14T17:26:52.144Z,10.18
2022-12-14T17:29:27.876Z,10.40
2022-12-14T17:31:57.791Z,10.40
2022-12-14T17:34:25.113Z,11.35
2022-12-14T17:36:52.050Z,10.90
2022-12-14T17:39:20.338Z,10.75
2022-12-14T17:41:47.895Z,9.48
2022-12-14T17:44:17.118Z,10.63
2022-12-14T17:46:46.449Z,9.63
2022-12-14T17:49:14.872Z,10.23
2022-12-14T17:51:45.309Z,14.40
2022-12-14T17:54:17.787Z,16.15
2022-12-14T17:56:45.697Z,18.83
2022-12-14T17:59:13.293Z,14.93
2022-12-14T18:01:41.672Z,13.95
2022-12-14T18:04:09.284Z,20.23
2022-12-14T18:06:36.189Z,14.88
2022-12-14T18:09:05.572Z,15.38
2022-12-14T18:11:32.655Z,15.35
2022-12-14T18:14:00.455Z,15.95
2022-12-14T18:16:29.069Z,14.55
2022-12-14T18:18:57.991Z,16.48
2022-12-14T18:21:28.666Z,16.42
2022-12-14T18:23:56.738Z,16.30
2022-12-14T18:26:24.068Z,17.08
2022-12-14T18:28:54.112Z,17.02
2022-12-14T18:31:35.976Z,16.23
2022-12-14T18:34:04.333Z,15.07
2022-12-14T18:36:31.246Z,17.95
2022-12-14T18:38:58.366Z,16.58
2022-12-14T18:41:27.409Z,17.33
2022-12-14T18:43:55.667Z,17.73
2022-12-14T18:46:23.343Z,17.80
2022-12-14T18:48:50.355Z,16.70
2022-12-14T18:51:23.700Z,15.85
2022-12-14T18:53:51.843Z,14.88
2022-12-14T18:56:19.048Z,15.05
2022-12-14T18:58:46.495Z,18.23
2022-12-14T19:01:16.176Z,18.75
2022-12-14T19:03:43.868Z,20.00
2022-12-14T19:06:46.106Z,22.02
2022-12-14T19:09:02.911Z,19.27
2022-12-14T19:11:33.852Z,19.73
2022-12-14T19:14:01.229Z,19.08
2022-12-14T19:16:28.780Z,18.45
2022-12-14T19:18:55.799Z,16.80
2022-12-14T19:21:25.318Z,16.73
2022-12-14T19:23:52.225Z,17.75
2022-12-14T19:26:19.247Z,18.67
2022-12-14T19:28:46.135Z,24.73
2022-12-14T19:31:13.080Z,19.77
2022-12-14T19:33:40.040Z,17.17
2022-12-14T19:36:07.769Z,17.75
2022-12-14T19:38:35.787Z,20.85
2022-12-14T19:41:08.891Z,19.52
2022-12-14T19:43:36.280Z,18.75
2022-12-14T19:46:08.143Z,18.75
2022-12-14T19:48:35.143Z,19.35
2022-12-14T19:51:10.562Z,19.52
2022-12-14T19:53:38.969Z,19.75
2022-12-14T19:56:06.054Z,19.27
2022-12-14T19:58:32.973Z,19.05
2022-12-14T20:01:00.058Z,19.27
2022-12-14T20:03:27.757Z,19.08
2022-12-14T20:05:59.342Z,18.77
2022-12-14T20:08:28.844Z,17.53
2022-12-14T20:10:56.098Z,16.30
2022-12-14T20:13:25.126Z,17.15
2022-12-14T20:15:54.900Z,18.25
2022-12-14T20:18:22.646Z,18.98
2022-12-14T20:20:50.812Z,16.13
2022-12-14T20:23:22.022Z,16.08
2022-12-14T20:25:49.489Z,14.95
2022-12-14T20:28:17.462Z,16.48
2022-12-14T20:30:46.332Z,15.73
2022-12-14T20:33:13.998Z,17.40
2022-12-14T20:35:40.891Z,15.82
2022-12-14T20:38:08.102Z,15.88
2022-12-14T20:40:38.964Z,15.00
2022-12-14T20:43:07.172Z,14.82
